Time;durP1;ratioP1;P1;durP2;ratioP2;P2;SDS_P1;SDS_P2;PMS_P1;PMS_P2;Temp;Humidity;BMP_temperature;BMP_pressure;BME280_temperature;BME280_humidity;BME280_pressure;Samples;Min_cycle;Max_cycle;Signal;HPM_P1;HPM_P2
2022/02/17 00:02:18;;;;;;;;;;;;;;;18.10;42.04;100620.75;5075522;28;849;-59
2022/02/17 00:04:43;;;;;;;;;;;;;;;18.44;41.41;100619.88;5075157;28;894;-60
2022/02/17 00:07:09;;;;;;;;;;;;;;;16.60;45.40;100617.84;5075732;28;917;-59
2022/02/17 00:09:34;;;;;;;;;;;;;;;15.39;49.14;100610.91;5075451;28;779;-59
2022/02/17 00:11:59;;;;;;;;;;;;;;;18.20;42.10;100608.00;5075601;28;1082;-59
2022/02/17 00:14:25;;;;;;;;;;;;;;;18.27;41.49;100603.81;5075512;28;1973;-59
2022/02/17 00:16:52;;;;;;;;;;;;;;;18.38;41.50;100610.03;5074656;28;880;-59
2022/02/17 00:19:21;;;;;;;;;;;;;;;17.90;42.27;100615.38;5075756;28;822;-59
2022/02/17 00:21:50;;;;;;;;;;;;;;;16.05;46.74;100605.84;5075444;28;934;-60
2022/02/17 00:24:16;;;;;;;;;;;;;;;17.38;44.16;100604.69;5075602;28;775;-60
2022/02/17 00:26:41;;;;;;;;;;;;;;;18.88;40.16;100604.31;5075325;28;1592;-60
2022/02/17 00:29:06;;;;;;;;;;;;;;;18.15;42.11;100594.28;5077446;28;825;-60
2022/02/17 00:31:33;;;;;;;;;;;;;;;18.37;41.37;100599.31;5078627;28;852;-61
2022/02/17 00:34:01;;;;;;;;;;;;;;;16.53;45.46;100589.03;5078673;28;1905;-60
2022/02/17 00:36:29;;;;;;;;;;;;;;;15.74;48.21;100590.13;5079117;28;797;-60
2022/02/17 00:38:54;;;;;;;;;;;;;;;18.39;41.49;100588.84;5079070;28;869;-60
2022/02/17 00:41:21;;;;;;;;;;;;;;;18.28;41.44;100588.91;5078738;28;785;-60
2022/02/17 00:43:49;;;;;;;;;;;;;;;18.33;41.54;100587.22;5078632;28;793;-60
2022/02/17 00:46:14;;;;;;;;;;;;;;;17.64;42.67;100574.28;5078352;28;882;-60
2022/02/17 00:48:40;;;;;;;;;;;;;;;15.84;47.31;100574.84;5111469;28;1109;-60
2022/02/17 00:51:06;;;;;;;;;;;;;;;16.77;45.60;100575.50;5078649;28;909;-60
2022/02/17 00:53:31;;;;;;;;;;;;;;;18.84;40.51;100563.84;5078483;28;758;-60
2022/02/17 00:55:56;;;;;;;;;;;;;;;18.01;42.19;100561.94;5078302;28;1907;-60
2022/02/17 00:58:22;;;;;;;;;;;;;;;18.41;41.19;100557.16;5111193;28;997;-61
2022/02/17 01:00:48;;;;;;;;;;;;;;;17.02;44.19;100562.81;5070291;28;1366;-60
2022/02/17 01:03:14;;;;;;;;;;;;;;;15.48;47.72;100547.34;5078454;28;814;-60
2022/02/17 01:05:39;;;;;;;;;;;;;;;18.02;42.30;100535.22;5111150;28;1087;-60
2022/02/17 01:08:05;;;;;;;;;;;;;;;18.47;41.16;100538.66;5110424;28;1104;-60
2022/02/17 01:10:31;;;;;;;;;;;;;;;18.23;41.87;100530.34;5077388;28;1212;-59
2022/02/17 01:12:57;;;;;;;;;;;;;;;17.98;42.20;100529.50;5078212;28;1098;-61
2022/02/17 01:15:27;;;;;;;;;;;;;;;16.06;46.16;100531.50;5076513;28;1893;-60
2022/02/17 01:17:52;;;;;;;;;;;;;;;17.15;44.44;100531.16;5078344;28;785;-59
2022/02/17 01:20:18;;;;;;;;;;;;;;;19.05;39.88;100534.13;5110636;28;1097;-59
2022/02/17 01:22:45;;;;;;;;;;;;;;;19.07;39.77;100527.19;5076480;28;1333;-59
2022/02/17 01:25:12;;;;;;;;;;;;;;;18.52;40.84;100527.56;5077077;28;1205;-59
2022/02/17 01:27:38;;;;;;;;;;;;;;;17.89;42.37;100522.94;5110773;28;1117;-59
2022/02/17 01:30:04;;;;;;;;;;;;;;;16.55;45.11;100516.31;5076188;28;1078;-59
2022/02/17 01:32:30;;;;;;;;;;;;;;;16.44;46.23;100520.19;5076543;28;1106;-59
2022/02/17 01:34:57;;;;;;;;;;;;;;;18.72;40.86;100521.00;5110458;28;1894;-59
2022/02/17 01:37:23;;;;;;;;;;;;;;;18.01;41.89;100526.16;5110223;28;1211;-59
2022/02/17 01:39:52;;;;;;;;;;;;;;;18.45;41.21;100510.56;5110089;28;1397;-60
2022/02/17 01:42:18;;;;;;;;;;;;;;;17.24;43.84;100502.00;5110301;28;1372;-60
2022/02/17 01:44:45;;;;;;;;;;;;;;;15.56;47.41;100505.72;5077652;28;828;-59
2022/02/17 01:47:12;;;;;;;;;;;;;;;17.78;42.97;100503.78;5077158;28;978;-59
2022/02/17 01:49:39;;;;;;;;;;;;;;;18.49;41.03;100486.84;5077666;28;805;-60
2022/02/17 01:52:06;;;;;;;;;;;;;;;18.32;41.71;100489.28;5110001;28;1125;-60
2022/02/17 01:54:32;;;;;;;;;;;;;;;18.25;41.39;100495.91;5077331;28;1901;-59
2022/02/17 01:56:58;;;;;;;;;;;;;;;16.26;46.07;100502.38;5092920;28;1156;-60
2022/02/17 01:59:24;;;;;;;;;;;;;;;16.23;46.87;100495.53;5076719;28;910;-59
2022/02/17 02:01:53;;;;;;;;;;;;;;;18.75;40.74;100486.56;5092120;28;1466;-60
2022/02/17 02:04:18;;;;;;;;;;;;;;;18.18;41.56;100491.88;5109825;28;1096;-59
2022/02/17 02:06:46;;;;;;;;;;;;;;;18.56;40.92;100487.31;5110026;28;1221;-60
2022/02/17 02:09:16;;;;;;;;;;;;;;;17.23;43.43;100470.13;5109804;28;2133;-59
2022/02/17 02:11:59;;;;;;;;;;;;;;;15.42;48.21;100485.41;5109171;28;1204;-59
2022/02/17 02:14:26;;;;;;;;;;;;;;;18.22;41.67;100479.19;5109556;28;1905;-59
2022/02/17 02:16:55;;;;;;;;;;;;;;;18.38;41.16;100486.13;5109418;28;1409;-60
2022/02/17 02:19:21;;;;;;;;;;;;;;;18.36;41.51;100479.31;5076823;28;750;-59
2022/02/17 02:21:49;;;;;;;;;;;;;;;17.76;42.71;100478.47;5076908;28;789;-60
2022/02/17 02:24:14;;;;;;;;;;;;;;;16.08;46.50;100466.19;5108994;28;1935;-60
2022/02/17 02:26:40;;;;;;;;;;;;;;;16.85;45.09;100480.75;5075574;28;1193;-60
2022/02/17 02:29:06;;;;;;;;;;;;;;;18.94;39.96;100464.53;5109307;28;1092;-60
2022/02/17 02:31:31;;;;;;;;;;;;;;;18.23;41.73;100469.81;5076571;28;1057;-60
2022/02/17 02:33:57;;;;;;;;;;;;;;;18.49;41.05;100470.34;5109311;28;1085;-60
2022/02/17 02:36:23;;;;;;;;;;;;;;;16.99;44.13;100470.81;5109200;28;1917;-60
2022/02/17 02:38:48;;;;;;;;;;;;;;;15.61;48.61;100470.06;5108726;28;1558;-60
2022/02/17 02:41:15;;;;;;;;;;;;;;;18.38;41.62;100468.81;5109339;28;1285;-60
2022/02/17 02:43:45;;;;;;;;;;;;;;;18.37;41.22;100473.50;5109272;28;1329;-60
2022/02/17 02:46:13;;;;;;;;;;;;;;;18.41;41.06;100466.31;5074926;28;1288;-60
2022/02/17 02:48:41;;;;;;;;;;;;;;;17.77;42.29;100485.63;5108986;28;1388;-60
2022/02/17 02:51:10;;;;;;;;;;;;;;;15.80;47.13;100473.09;5108223;28;1196;-60
2022/02/17 02:53:35;;;;;;;;;;;;;;;17.20;44.27;100481.69;5108205;28;1530;-60
2022/02/17 02:56:01;;;;;;;;;;;;;;;18.92;40.26;100472.31;5109167;28;1909;-60
2022/02/17 02:58:27;;;;;;;;;;;;;;;18.21;41.52;100472.84;5108998;28;1156;-60
2022/02/17 03:00:53;;;;;;;;;;;;;;;18.23;41.59;100475.31;5074503;28;1110;-60
2022/02/17 03:03:18;;;;;;;;;;;;;;;16.50;45.49;100479.81;5075971;28;826;-60
2022/02/17 03:05:44;;;;;;;;;;;;;;;15.56;48.55;100486.53;5074953;28;1086;-59
2022/02/17 03:08:12;;;;;;;;;;;;;;;18.45;41.34;100486.63;5076077;28;897;-60
2022/02/17 03:10:38;;;;;;;;;;;;;;;18.22;41.42;100488.25;5076426;28;964;-60
2022/02/17 03:13:04;;;;;;;;;;;;;;;18.40;41.13;100475.66;5108443;28;1164;-60
2022/02/17 03:15:32;;;;;;;;;;;;;;;17.66;42.64;100488.78;5101067;28;1910;-60
2022/02/17 03:17:57;;;;;;;;;;;;;;;15.84;46.92;100492.59;5074720;28;1300;-60
2022/02/17 03:20:23;;;;;;;;;;;;;;;17.32;43.94;100479.41;5076037;28;982;-62
2022/02/17 03:22:49;;;;;;;;;;;;;;;18.85;40.10;100491.91;5108490;28;1249;-60
2022/02/17 03:25:15;;;;;;;;;;;;;;;18.16;41.87;100494.09;5108545;28;1354;-61
2022/02/17 03:27:42;;;;;;;;;;;;;;;18.40;41.23;100492.19;5107800;28;1220;-61
2022/02/17 03:30:31;;;;;;;;;;;;;;;16.31;45.59;100488.63;5069934;28;1094;-61
2022/02/17 03:33:01;;;;;;;;;;;;;;;16.75;45.33;100504.41;5108878;28;1132;-61
2022/02/17 03:35:26;;;;;;;;;;;;;;;19.01;39.74;100509.06;5108291;28;1940;-60
2022/02/17 03:37:52;;;;;;;;;;;;;;;18.06;41.87;100495.03;5108798;28;1286;-60
2022/02/17 03:40:21;;;;;;;;;;;;;;;18.47;41.09;100505.63;5107931;28;1711;-60
2022/02/17 03:42:51;;;;;;;;;;;;;;;16.81;44.37;100482.44;5074390;28;2106;-60
2022/02/17 03:45:17;;;;;;;;;;;;;;;15.40;48.34;100491.16;5107610;28;1085;-60
2022/02/17 03:47:42;;;;;;;;;;;;;;;18.16;41.88;100483.09;5108291;28;1284;-60
2022/02/17 03:50:13;;;;;;;;;;;;;;;18.33;41.30;100497.22;5108206;28;1117;-60
2022/02/17 03:52:39;;;;;;;;;;;;;;;18.35;41.21;100483.97;5108105;28;1263;-60
2022/02/17 03:55:10;;;;;;;;;;;;;;;17.83;42.14;100491.09;5107670;28;1905;-60
2022/02/17 03:57:38;;;;;;;;;;;;;;;15.89;46.67;100473.38;5108337;28;1269;-60
2022/02/17 04:00:05;;;;;;;;;;;;;;;16.86;45.04;100483.22;5075514;28;818;-60
2022/02/17 04:02:31;;;;;;;;;;;;;;;18.80;40.42;100472.69;5075131;28;828;-60
2022/02/17 04:04:58;;;;;;;;;;;;;;;18.03;41.82;100473.59;5112133;28;1377;-60
2022/02/17 04:07:24;;;;;;;;;;;;;;;18.50;40.98;100471.16;5072789;28;833;-60
2022/02/17 04:09:49;;;;;;;;;;;;;;;16.79;44.48;100474.47;5079330;28;830;-61
2022/02/17 04:12:16;;;;;;;;;;;;;;;15.71;48.12;100475.56;5112076;28;1316;-60
2022/02/17 04:14:43;;;;;;;;;;;;;;;18.49;41.04;100472.28;5111596;28;1968;-61
2022/02/17 04:17:08;;;;;;;;;;;;;;;18.35;41.05;100466.66;5111631;28;1121;-60
2022/02/17 04:19:54;;;;;;;;;;;;;;;18.02;41.88;100461.78;5073426;28;1326;-61
2022/02/17 04:22:37;;;;;;;;;;;;;;;16.70;44.76;100468.72;5111860;28;1150;-63
2022/02/17 04:25:18;;;;;;;;;;;;;;;16.01;46.80;100449.22;5111540;28;1149;-61
2022/02/17 04:27:44;;;;;;;;;;;;;;;18.58;40.90;100464.97;5079175;28;856;-61
2022/02/17 04:30:10;;;;;;;;;;;;;;;18.14;41.44;100461.38;5111491;28;1110;-61
2022/02/17 04:32:36;;;;;;;;;;;;;;;18.12;41.62;100463.59;5111256;28;1424;-61
2022/02/17 04:35:02;;;;;;;;;;;;;;;17.20;43.49;100465.19;5111467;28;1901;-61
2022/02/17 04:37:27;;;;;;;;;;;;;;;15.60;47.34;100451.16;5077861;28;1101;-61
2022/02/17 04:39:53;;;;;;;;;;;;;;;17.36;43.63;100444.75;5111191;28;858;-62
2022/02/17 04:42:19;;;;;;;;;;;;;;;18.79;39.98;100443.53;5111363;28;1109;-60
2022/02/17 04:44:49;;;;;;;;;;;;;;;18.05;41.58;100441.94;5111251;28;1623;-61
2022/02/17 04:47:16;;;;;;;;;;;;;;;18.20;41.15;100448.38;5110668;28;1247;-61
2022/02/17 04:49:42;;;;;;;;;;;;;;;16.54;45.20;100443.28;5078646;28;809;-60
2022/02/17 04:52:08;;;;;;;;;;;;;;;16.12;46.93;100429.97;5111285;28;1100;-63
2022/02/17 04:54:35;;;;;;;;;;;;;;;18.54;41.01;100441.94;5077402;28;1980;-61
2022/02/17 04:57:02;;;;;;;;;;;;;;;18.17;41.60;100441.53;5110729;28;1114;-58
2022/02/17 04:59:32;;;;;;;;;;;;;;;18.53;40.84;100434.78;5063343;28;1498;-61
2022/02/17 05:01:58;;;;;;;;;;;;;;;17.31;42.85;100438.47;5077768;28;1229;-62
2022/02/17 05:04:42;;;;;;;;;;;;;;;15.73;46.62;100434.97;5078317;28;789;-66
2022/02/17 05:07:10;;;;;;;;;;;;;;;18.33;40.92;100442.19;5076249;28;1644;-65
2022/02/17 05:09:36;;;;;;;;;;;;;;;18.53;40.28;100434.78;5071581;28;1818;-65
2022/02/17 05:12:02;;;;;;;;;;;;;;;18.47;40.58;100432.09;5078231;28;1242;-68
2022/02/17 05:14:28;;;;;;;;;;;;;;;18.28;41.09;100431.22;5076137;28;1979;-65
2022/02/17 05:16:54;;;;;;;;;;;;;;;16.44;45.13;100432.34;5110251;28;1223;-65
2022/02/17 05:19:23;;;;;;;;;;;;;;;16.16;46.27;100433.81;5076940;28;1109;-65
2022/02/17 05:22:07;;;;;;;;;;;;;;;18.80;39.85;100412.94;5078168;28;663;-65
2022/02/17 05:25:06;;;;;;;;;;;;;;;18.17;41.43;100424.19;5089467;28;1337;-65
2022/02/17 05:27:49;;;;;;;;;;;;;;;18.61;40.11;100423.91;5077650;28;711;-63
2022/02/17 05:30:27;;;;;;;;;;;;;;;16.68;44.48;100432.50;5107499;28;1546;-62
2022/02/17 05:33:25;;;;;;;;;;;;;;;16.62;45.25;100422.69;5077218;28;1022;-61
2022/02/17 05:36:16;;;;;;;;;;;;;;;18.78;39.74;100409.63;5076362;28;1886;-63
2022/02/17 05:39:02;;;;;;;;;;;;;;;18.29;40.86;100419.09;5070326;28;1331;-60
2022/02/17 05:41:36;;;;;;;;;;;;;;;18.35;40.64;100423.41;5077165;28;1346;-64
2022/02/17 05:44:01;;;;;;;;;;;;;;;16.59;44.59;100417.72;5077340;28;1142;-61
2022/02/17 05:46:27;;;;;;;;;;;;;;;16.28;46.02;100415.13;5076583;28;1253;-66
2022/02/17 05:48:52;;;;;;;;;;;;;;;18.74;40.37;100419.59;5076899;28;1297;-60
2022/02/17 05:51:18;;;;;;;;;;;;;;;18.26;41.14;100425.19;5077102;28;1372;-66
2022/02/17 05:53:43;;;;;;;;;;;;;;;18.37;41.00;100418.47;5077893;28;973;-61
2022/02/17 05:56:09;;;;;;;;;;;;;;;17.38;42.97;100412.28;5077252;28;1987;-62
2022/02/17 05:58:34;;;;;;;;;;;;;;;15.82;46.40;100404.28;5077561;28;923;-63
2022/02/17 06:01:00;;;;;;;;;;;;;;;17.73;42.34;100393.81;5076856;28;894;-65
2022/02/17 06:03:25;;;;;;;;;;;;;;;18.94;39.32;100392.91;5076488;28;1055;-66
2022/02/17 06:05:51;;;;;;;;;;;;;;;19.14;39.24;100400.88;5075486;28;1296;-66
2022/02/17 06:08:16;;;;;;;;;;;;;;;18.61;40.20;100390.88;5077163;28;1110;-65
2022/02/17 06:10:43;;;;;;;;;;;;;;;17.55;42.36;100389.88;5076740;28;984;-66
2022/02/17 06:13:08;;;;;;;;;;;;;;;16.18;45.69;100401.44;5070321;28;1026;-61
2022/02/17 06:15:36;;;;;;;;;;;;;;;16.70;45.11;100402.03;5076723;28;1918;-60
2022/02/17 06:18:02;;;;;;;;;;;;;;;18.87;40.02;100381.41;5076672;28;849;-65
2022/02/17 06:20:27;;;;;;;;;;;;;;;18.25;40.97;100385.03;5076829;28;745;-65
2022/02/17 06:22:53;;;;;;;;;;;;;;;18.52;40.44;100372.56;5076440;28;1134;-67
2022/02/17 06:25:19;;;;;;;;;;;;;;;17.06;43.49;100377.09;5081990;28;745;-65
2022/02/17 06:27:45;;;;;;;;;;;;;;;15.57;46.86;100390.31;5076375;28;812;-65
2022/02/17 06:30:10;;;;;;;;;;;;;;;17.84;42.16;100368.94;5076733;28;894;-66
2022/02/17 06:32:43;;;;;;;;;;;;;;;18.53;40.15;100354.94;5076615;28;818;-65
2022/02/17 06:35:08;;;;;;;;;;;;;;;18.30;40.83;100365.72;5076585;28;1910;-67
2022/02/17 06:37:34;;;;;;;;;;;;;;;17.84;41.61;100368.94;5071713;28;1377;-65
2022/02/17 06:40:01;;;;;;;;;;;;;;;16.44;44.96;100371.97;5075440;28;1354;-65
2022/02/17 06:42:26;;;;;;;;;;;;;;;15.86;46.92;100362.31;5073780;28;1567;-66
2022/02/17 06:44:51;;;;;;;;;;;;;;;18.42;40.60;100352.31;5076227;28;830;-58
2022/02/17 06:47:17;;;;;;;;;;;;;;;18.53;40.77;100358.50;5075963;28;1104;-59
2022/02/17 06:49:42;;;;;;;;;;;;;;;18.56;40.66;100354.34;5071754;28;1269;-61
2022/02/17 06:52:08;;;;;;;;;;;;;;;18.11;41.39;100358.22;5072319;28;1579;-62
2022/02/17 06:54:35;;;;;;;;;;;;;;;16.01;45.96;100358.72;5071236;28;1910;-64
2022/02/17 06:57:00;;;;;;;;;;;;;;;17.48;43.43;100350.09;5070300;28;1402;-62
2022/02/17 06:59:26;;;;;;;;;;;;;;;19.38;39.29;100344.78;5072363;28;1305;-64
2022/02/17 07:01:51;;;;;;;;;;;;;;;18.52;41.16;100348.59;5071169;28;1515;-66
2022/02/17 07:04:18;;;;;;;;;;;;;;;18.19;42.28;100353.16;5072988;28;1273;-65
2022/02/17 07:06:44;;;;;;;;;;;;;;;16.82;45.46;100352.28;5071253;28;1319;-64
2022/02/17 07:09:09;;;;;;;;;;;;;;;16.02;48.00;100357.63;5071379;28;1342;-63
2022/02/17 07:11:35;;;;;;;;;;;;;;;17.87;43.82;100351.88;5077073;28;1353;-65
2022/02/17 07:14:00;;;;;;;;;;;;;;;18.59;41.60;100342.72;5059722;28;1664;-62
2022/02/17 07:16:26;;;;;;;;;;;;;;;17.89;43.21;100352.41;5055084;28;1902;-66
2022/02/17 07:18:51;;;;;;;;;;;;;;;17.71;43.43;100349.31;5055022;28;1371;-63
2022/02/17 07:21:18;;;;;;;;;;;;;;;16.25;46.85;100353.41;5055779;28;1464;-64
2022/02/17 07:23:43;;;;;;;;;;;;;;;17.27;44.83;100356.59;5054985;28;1254;-58
2022/02/17 07:26:09;;;;;;;;;;;;;;;18.89;40.98;100340.66;5048789;28;1373;-62
2022/02/17 07:28:35;;;;;;;;;;;;;;;18.01;42.93;100341.84;5057573;28;1375;-65
2022/02/17 07:31:00;;;;;;;;;;;;;;;17.85;43.07;100343.94;5056089;28;1069;-61
2022/02/17 07:33:26;;;;;;;;;;;;;;;16.62;45.72;100337.56;5059545;28;1195;-62
2022/02/17 07:35:51;;;;;;;;;;;;;;;16.17;47.44;100333.97;5053319;28;1971;-68
2022/02/17 07:38:17;;;;;;;;;;;;;;;18.46;41.80;100327.75;5055374;28;1274;-65
2022/02/17 07:40:42;;;;;;;;;;;;;;;18.05;42.30;100326.38;5060514;28;1265;-69
2022/02/17 07:43:08;;;;;;;;;;;;;;;17.48;44.07;100328.09;5060232;28;1205;-68
2022/02/17 07:45:34;;;;;;;;;;;;;;;16.45;46.17;100326.94;5059230;28;1200;-67
2022/02/17 07:47:59;;;;;;;;;;;;;;;16.39;46.71;100323.41;5054696;28;1453;-66
2022/02/17 07:50:26;;;;;;;;;;;;;;;18.67;41.25;100325.53;5031945;28;1267;-62
2022/02/17 07:52:51;;;;;;;;;;;;;;;19.06;40.09;100329.91;5054390;28;1441;-70
2022/02/17 07:55:18;;;;;;;;;;;;;;;18.36;41.57;100334.22;5054619;28;1905;-66
2022/02/17 07:57:43;;;;;;;;;;;;;;;17.50;43.68;100326.72;5049069;28;1263;-63
2022/02/17 08:00:11;;;;;;;;;;;;;;;17.71;44.60;100332.81;5054473;28;1568;-62
2022/02/17 08:02:39;;;;;;;;;;;;;;;19.90;39.88;100328.09;5053122;28;1307;-65
2022/02/17 08:05:05;;;;;;;;;;;;;;;20.55;38.60;100320.63;5055422;28;858;-64
2022/02/17 08:07:31;;;;;;;;;;;;;;;20.80;38.26;100316.50;5053344;28;1234;-67
2022/02/17 08:09:57;;;;;;;;;;;;;;;20.91;38.57;100328.09;5053611;28;1318;-65
2022/02/17 08:12:22;;;;;;;;;;;;;;;21.06;38.27;100318.63;5049857;28;1556;-66
2022/02/17 08:14:47;;;;;;;;;;;;;;;21.16;38.21;100318.34;5072440;28;1906;-65
2022/02/17 08:17:13;;;;;;;;;;;;;;;21.20;38.20;100315.78;5074339;28;1278;-66
2022/02/17 08:19:39;;;;;;;;;;;;;;;21.35;38.31;100309.84;5074548;28;1333;-66
2022/02/17 08:22:04;;;;;;;;;;;;;;;21.37;38.54;100315.06;5075177;28;1480;-71
2022/02/17 08:24:30;;;;;;;;;;;;;;;21.44;39.03;100293.28;5074400;28;1518;-65
2022/02/17 08:26:59;;;;;;;;;;;;;;;21.58;38.80;100300.72;5075123;28;1379;-68
2022/02/17 08:29:26;;;;;;;;;;;;;;;21.69;38.91;100294.56;5074972;28;1554;-67
2022/02/17 08:31:51;;;;;;;;;;;;;;;21.73;39.06;100278.16;5075008;28;890;-64
2022/02/17 08:34:17;;;;;;;;;;;;;;;21.83;39.10;100283.38;5074045;28;1883;-67
2022/02/17 08:36:42;;;;;;;;;;;;;;;21.94;38.95;100280.31;5077447;28;1230;-66
2022/02/17 08:39:08;;;;;;;;;;;;;;;20.99;41.13;100279.56;5075003;28;1530;-66
2022/02/17 08:41:33;;;;;;;;;;;;;;;20.46;42.57;100273.63;5074203;28;1249;-64
2022/02/17 08:43:59;;;;;;;;;;;;;;;19.76;43.97;100278.41;5079619;28;1364;-64
2022/02/17 08:46:24;;;;;;;;;;;;;;;20.23;43.57;100281.06;5075638;28;1634;-63
2022/02/17 08:48:50;;;;;;;;;;;;;;;21.01;41.33;100278.13;5071224;28;1562;-63
2022/02/17 08:51:17;;;;;;;;;;;;;;;21.34;40.56;100265.94;5075317;28;1535;-62
2022/02/17 08:53:45;;;;;;;;;;;;;;;21.52;39.89;100267.66;5077599;28;1295;-64
2022/02/17 08:56:10;;;;;;;;;;;;;;;21.68;39.55;100262.47;5077278;28;1918;-67
2022/02/17 08:58:36;;;;;;;;;;;;;;;21.76;39.45;100271.16;5078712;28;796;-65
2022/02/17 09:01:01;;;;;;;;;;;;;;;21.96;38.92;100266.97;5077414;28;1478;-64
2022/02/17 09:03:27;;;;;;;;;;;;;;;21.40;39.93;100275.69;5077430;28;1444;-65
2022/02/17 09:05:53;;;;;;;;;;;;;;;20.48;42.26;100274.13;5076656;28;1006;-64
2022/02/17 09:08:18;;;;;;;;;;;;;;;20.07;43.25;100272.28;5077610;28;1414;-61
2022/02/17 09:10:43;;;;;;;;;;;;;;;20.12;43.48;100274.94;5077050;28;1168;-63
2022/02/17 09:13:09;;;;;;;;;;;;;;;21.12;41.23;100278.66;5077214;28;1352;-63
2022/02/17 09:15:37;;;;;;;;;;;;;;;21.58;40.06;100284.13;5074242;28;1969;-64
2022/02/17 09:18:03;;;;;;;;;;;;;;;21.79;39.32;100279.63;5075970;28;1284;-64
2022/02/17 09:20:29;;;;;;;;;;;;;;;21.97;39.36;100268.59;5077386;28;1620;-62
2022/02/17 09:22:54;;;;;;;;;;;;;;;22.17;39.01;100256.88;5080215;28;1296;-63
2022/02/17 09:25:20;;;;;;;;;;;;;;;21.32;40.84;100265.41;5077343;28;1538;-61
2022/02/17 09:27:45;;;;;;;;;;;;;;;20.65;42.54;100253.28;5076833;28;1310;-61
2022/02/17 09:30:11;;;;;;;;;;;;;;;20.04;43.64;100241.75;5075344;28;1304;-62
2022/02/17 09:32:36;;;;;;;;;;;;;;;19.82;44.42;100246.88;5076256;28;1292;-64
2022/02/17 09:35:02;;;;;;;;;;;;;;;20.91;41.96;100238.88;5076601;28;1898;-67
2022/02/17 09:37:27;;;;;;;;;;;;;;;21.40;40.64;100225.13;5077043;28;1329;-67
2022/02/17 09:39:55;;;;;;;;;;;;;;;21.71;39.87;100211.22;5076738;28;1049;-64
2022/02/17 09:42:20;;;;;;;;;;;;;;;21.79;39.68;100213.19;5079368;28;1543;-64
2022/02/17 09:44:49;;;;;;;;;;;;;;;21.96;39.13;100201.34;5075874;28;1153;-64
2022/02/17 09:47:15;;;;;;;;;;;;;;;22.05;38.71;100195.81;5074943;28;1614;-65
2022/02/17 09:49:42;;;;;;;;;;;;;;;22.14;38.22;100179.22;5074827;28;1384;-64
2022/02/17 09:52:11;;;;;;;;;;;;;;;21.70;39.00;100171.69;5075832;28;1165;-66
2022/02/17 09:54:37;;;;;;;;;;;;;;;20.91;40.80;100176.09;5073311;28;1909;-63
2022/02/17 09:57:03;;;;;;;;;;;;;;;20.31;41.90;100188.38;5072950;28;1395;-61
2022/02/17 09:59:30;;;;;;;;;;;;;;;19.29;44.17;100176.53;5073869;28;1522;-61
2022/02/17 10:01:56;;;;;;;;;;;;;;;19.85;43.00;100170.94;5075188;28;1237;-62
2022/02/17 10:04:23;;;;;;;;;;;;;;;20.94;40.36;100166.38;5077840;28;1303;-62
2022/02/17 10:06:58;;;;;;;;;;;;;;;21.37;39.32;100149.94;5076616;28;1178;-67
2022/02/17 10:09:46;;;;;;;;;;;;;;;21.68;38.55;100145.47;5075664;28;1408;-64
2022/02/17 10:12:15;;;;;;;;;;;;;;;21.91;38.16;100140.63;5075450;28;1466;-64
2022/02/17 10:14:43;;;;;;;;;;;;;;;22.03;38.04;100143.56;5075690;28;1963;-64
2022/02/17 10:17:09;;;;;;;;;;;;;;;22.13;37.58;100128.56;5075951;28;1301;-66
2022/02/17 10:19:44;;;;;;;;;;;;;;;21.66;38.41;100122.84;5075382;28;1471;-72
2022/02/17 10:22:13;;;;;;;;;;;;;;;20.83;39.97;100091.22;5075576;28;1254;-72
2022/02/17 10:24:46;;;;;;;;;;;;;;;20.17;41.49;100108.38;5076858;28;766;-70
2022/02/17 10:27:15;;;;;;;;;;;;;;;20.24;41.37;100096.91;5076077;28;1235;-67
2022/02/17 10:29:57;;;;;;;;;;;;;;;21.16;39.49;100091.66;5074050;28;1291;-68
2022/02/17 10:32:22;;;;;;;;;;;;;;;21.64;38.38;100089.16;5075948;28;808;-67
2022/02/17 10:34:48;;;;;;;;;;;;;;;21.88;37.59;100089.50;5075462;28;1902;-67
2022/02/17 10:37:13;;;;;;;;;;;;;;;22.00;37.53;100068.63;5074552;28;1153;-67
2022/02/17 10:39:42;;;;;;;;;;;;;;;22.11;37.28;100069.91;5073136;28;1181;-67
2022/02/17 10:42:09;;;;;;;;;;;;;;;22.19;36.97;100059.97;5069639;28;1422;-71
2022/02/17 10:44:38;;;;;;;;;;;;;;;21.10;39.24;100051.47;5074064;28;1412;-66
2022/02/17 10:47:10;;;;;;;;;;;;;;;20.95;39.79;100047.22;5073109;28;1211;-66
2022/02/17 10:49:39;;;;;;;;;;;;;;;19.58;42.96;100044.94;5073324;28;1278;-66
2022/02/17 10:52:05;;;;;;;;;;;;;;;20.75;40.38;100037.56;5070383;28;1461;-68
2022/02/17 10:54:30;;;;;;;;;;;;;;;21.38;39.10;100056.72;5071940;28;1979;-68
2022/02/17 10:56:56;;;;;;;;;;;;;;;21.74;38.33;100043.75;5077213;28;1038;-69
2022/02/17 11:02:06;;;;;;;;;;;;;;;22.10;37.78;100046.13;5069021;28;1633;-69
2022/02/17 11:04:31;;;;;;;;;;;;;;;21.18;39.79;100025.81;5074283;28;1112;-69
2022/02/17 11:06:58;;;;;;;;;;;;;;;20.93;40.50;100018.25;5074746;28;1329;-64
2022/02/17 11:09:23;;;;;;;;;;;;;;;19.88;42.73;100015.00;5074754;28;1673;-66
2022/02/17 11:11:53;;;;;;;;;;;;;;;19.94;42.67;99992.50;5075625;28;1217;-64
2022/02/17 11:14:45;;;;;;;;;;;;;;;21.04;40.46;100000.22;5073920;28;1570;-67
2022/02/17 11:17:11;;;;;;;;;;;;;;;21.73;39.04;99987.59;5068901;28;1356;-66
2022/02/17 11:19:36;;;;;;;;;;;;;;;22.02;38.22;99972.22;5075706;28;765;-73
2022/02/17 11:22:03;;;;;;;;;;;;;;;21.74;38.74;99971.81;5074737;28;1400;-67
2022/02/17 11:24:28;;;;;;;;;;;;;;;20.91;40.95;99957.78;5079568;28;1431;-66
2022/02/17 11:27:00;;;;;;;;;;;;;;;20.57;41.39;99964.84;5075325;28;913;-65
2022/02/17 11:29:27;;;;;;;;;;;;;;;19.85;43.46;99964.03;5075200;28;2543;-66
2022/02/17 11:32:02;;;;;;;;;;;;;;;21.02;40.76;99952.78;5071748;28;1058;-65
2022/02/17 11:34:44;;;;;;;;;;;;;;;21.61;39.51;99945.94;5074850;28;1902;-65
2022/02/17 11:37:30;;;;;;;;;;;;;;;22.00;38.87;99971.75;5075145;28;1218;-64
2022/02/17 11:40:02;;;;;;;;;;;;;;;21.74;39.37;99961.56;5069196;28;1325;-64
2022/02/17 11:42:31;;;;;;;;;;;;;;;20.97;41.50;99955.69;5073695;28;1202;-67
2022/02/17 11:45:06;;;;;;;;;;;;;;;20.38;42.56;99951.28;5073656;28;1547;-67
2022/02/17 11:47:50;;;;;;;;;;;;;;;19.39;45.27;99954.13;5074901;28;1268;-65
2022/02/17 11:50:35;;;;;;;;;;;;;;;20.78;41.84;99945.75;5075563;28;1308;-65
2022/02/17 11:53:19;;;;;;;;;;;;;;;21.48;39.81;99940.22;5069790;28;1205;-66
2022/02/17 11:55:45;;;;;;;;;;;;;;;21.81;38.90;99936.97;5071334;28;1933;-65
2022/02/17 11:58:29;;;;;;;;;;;;;;;22.05;38.47;99943.91;5071812;28;1253;-69
2022/02/17 12:00:54;;;;;;;;;;;;;;;21.42;39.65;99940.72;5074351;28;1244;-66
2022/02/17 12:03:38;;;;;;;;;;;;;;;21.05;40.55;99935.53;5074744;28;1380;-69
2022/02/17 12:06:22;;;;;;;;;;;;;;;20.04;42.96;99946.44;5074403;28;1321;-68
2022/02/17 12:08:54;;;;;;;;;;;;;;;20.21;42.54;99924.44;5071282;28;1468;-69
2022/02/17 12:11:27;;;;;;;;;;;;;;;21.32;40.12;99933.56;5071128;28;1174;-67
2022/02/17 12:13:53;;;;;;;;;;;;;;;21.92;38.59;99922.75;5074731;28;1217;-69
2022/02/17 12:17:02;;;;;;;;;;;;;;;22.30;37.76;99914.47;5070683;28;1996;-72
2022/02/17 12:19:28;;;;;;;;;;;;;;;21.14;40.22;99922.53;5062654;28;1453;-68
2022/02/17 12:21:56;;;;;;;;;;;;;;;20.81;40.24;99922.19;5073269;28;1372;-63
2022/02/17 12:24:22;;;;;;;;;;;;;;;19.38;43.98;99911.16;5108147;28;1202;-64
2022/02/17 12:26:50;;;;;;;;;;;;;;;20.65;40.97;99910.75;5078703;28;1276;-74
2022/02/17 12:29:33;;;;;;;;;;;;;;;21.39;39.09;99900.72;5078249;28;1385;-70
2022/02/17 12:31:59;;;;;;;;;;;;;;;21.84;38.09;99900.31;5078756;28;1144;-66
2022/02/17 12:34:24;;;;;;;;;;;;;;;22.04;37.52;99903.50;5081475;28;1976;-70
2022/02/17 12:36:50;;;;;;;;;;;;;;;22.13;37.41;99898.75;5076514;28;1212;-71
2022/02/17 12:39:15;;;;;;;;;;;;;;;20.98;39.70;99902.84;5076957;28;1443;-63
2022/02/17 12:42:00;;;;;;;;;;;;;;;20.81;39.95;99898.13;5080697;28;1170;-65
2022/02/17 12:44:30;;;;;;;;;;;;;;;19.20;43.39;99896.44;5069984;28;1379;-65
2022/02/17 12:46:56;;;;;;;;;;;;;;;20.54;40.31;99892.84;5075325;28;1158;-65
2022/02/17 12:49:21;;;;;;;;;;;;;;;21.38;38.62;99888.03;5074898;28;1387;-64
2022/02/17 12:51:47;;;;;;;;;;;;;;;21.84;37.63;99878.19;5068435;28;1363;-63
2022/02/17 12:54:34;;;;;;;;;;;;;;;22.08;37.01;99868.47;5075481;28;1415;-66
2022/02/17 12:57:03;;;;;;;;;;;;;;;21.81;37.46;99876.09;5071131;28;1380;-62
2022/02/17 12:59:29;;;;;;;;;;;;;;;20.96;39.59;99876.69;5075956;28;1277;-65